Time;durP1;ratioP1;P1;durP2;ratioP2;P2;SDS_P1;SDS_P2;PMS_P1;PMS_P2;Temp;Humidity;BMP_temperature;BMP_pressure;BME280_temperature;BME280_humidity;BME280_pressure;Samples;Min_cycle;Max_cycle;Signal;HPM_P1;HPM_P2
2022/08/03 00:01:16;;;;;;;1.52;0.98;;;15.80;93.10;;;;;;5040809;28;20017;-72
2022/08/03 00:03:43;;;;;;;3.72;1.48;;;15.70;93.00;;;;;;5040825;28;20031;-79
2022/08/03 00:06:11;;;;;;;2.22;0.70;;;15.80;93.10;;;;;;5038470;28;20025;-77
2022/08/03 00:08:39;;;;;;;2.03;0.85;;;15.80;93.10;;;;;;5038166;28;20179;-74
2022/08/03 00:11:07;;;;;;;4.68;1.50;;;15.90;93.20;;;;;;5040023;28;20464;-73
2022/08/03 00:13:34;;;;;;;1.85;1.00;;;15.90;93.30;;;;;;5038072;28;20096;-73
2022/08/03 00:16:01;;;;;;;2.30;1.10;;;15.90;93.20;;;;;;5040489;28;20025;-75
2022/08/03 00:18:29;;;;;;;2.50;0.90;;;16.00;93.50;;;;;;5038997;28;20033;-74
2022/08/03 00:20:56;;;;;;;2.97;1.67;;;16.00;93.40;;;;;;5041195;28;20041;-75
2022/08/03 00:23:23;;;;;;;5.82;1.38;;;16.00;93.50;;;;;;5039249;28;20021;-76
2022/08/03 00:25:51;;;;;;;3.45;0.70;;;16.00;93.40;;;;;;5040672;28;20045;-73
2022/08/03 00:28:18;;;;;;;2.45;0.90;;;16.00;93.10;;;;;;5040319;28;20071;-77
2022/08/03 00:30:45;;;;;;;2.65;0.93;;;16.10;93.10;;;;;;5038325;28;20017;-77
2022/08/03 00:33:13;;;;;;;2.83;1.35;;;16.10;93.00;;;;;;5037923;28;20115;-73
2022/08/03 00:35:40;;;;;;;1.77;1.50;;;16.20;93.30;;;;;;5037788;28;20024;-75
2022/08/03 00:38:08;;;;;;;1.48;0.98;;;16.20;93.00;;;;;;5038098;28;20028;-75
2022/08/03 00:40:35;;;;;;;1.88;0.88;;;16.20;92.90;;;;;;5034088;28;20488;-75
2022/08/03 00:43:05;;;;;;;2.17;0.77;;;16.30;92.80;;;;;;5039333;28;20078;-73
2022/08/03 00:45:37;;;;;;;2.42;1.02;;;16.40;92.90;;;;;;5034900;28;20025;-77
2022/08/03 00:48:06;;;;;;;5.05;0.88;;;16.40;92.90;;;;;;5039312;28;20025;-74
2022/08/03 00:50:41;;;;;;;1.52;0.85;;;16.50;92.90;;;;;;5036739;28;20420;-73
2022/08/03 00:53:13;;;;;;;2.92;1.02;;;16.60;92.80;;;;;;5040285;28;20074;-79
2022/08/03 00:55:41;;;;;;;2.20;0.93;;;16.60;92.80;;;;;;5038555;28;20059;-76
2022/08/03 00:58:10;;;;;;;2.55;1.15;;;16.70;92.70;;;;;;5039589;28;20041;-72
2022/08/03 01:00:40;;;;;;;2.75;1.30;;;16.80;92.90;;;;;;5038214;28;20017;-72
2022/08/03 01:03:10;;;;;;;2.58;0.82;;;16.80;92.90;;;;;;5039691;28;20051;-73
2022/08/03 01:06:10;;;;;;;1.85;0.73;;;16.90;92.50;;;;;;5035868;28;20063;-73
2022/08/03 01:08:46;;;;;;;2.45;0.70;;;17.00;92.60;;;;;;5035933;28;20029;-73
2022/08/03 01:11:37;;;;;;;1.33;0.68;;;17.10;92.70;;;;;;5037803;28;20496;-73
2022/08/03 01:14:15;;;;;;;2.30;1.17;;;17.10;92.80;;;;;;5036206;28;20386;-74
2022/08/03 01:17:17;;;;;;;1.33;0.80;;;17.20;92.80;;;;;;5035953;28;20021;-73
2022/08/03 01:19:54;;;;;;;2.03;0.70;;;17.30;92.70;;;;;;5036487;28;20098;-73
2022/08/03 01:22:48;;;;;;;2.38;0.80;;;17.40;92.80;;;;;;5039827;28;20024;-73
2022/08/03 01:25:55;;;;;;;2.60;1.40;;;17.50;92.60;;;;;;5040286;28;20081;-72
2022/08/03 01:28:41;;;;;;;3.78;0.80;;;17.70;92.60;;;;;;5038165;28;20044;-72
2022/08/03 01:31:11;;;;;;;2.28;1.00;;;17.90;92.50;;;;;;5039667;28;20128;-73
2022/08/03 01:33:46;;;;;;;3.58;0.80;;;18.00;92.50;;;;;;5037483;28;20167;-73
2022/08/03 01:36:17;;;;;;;2.20;0.70;;;18.10;92.30;;;;;;5038201;28;20120;-72
2022/08/03 01:38:58;;;;;;;1.95;1.15;;;18.40;92.10;;;;;;5037282;28;20033;-73
2022/08/03 01:41:34;;;;;;;1.70;0.68;;;18.60;92.20;;;;;;5039259;28;20095;-73
2022/08/03 01:44:05;;;;;;;1.83;0.80;;;18.90;92.30;;;;;;5039644;28;20025;-74
2022/08/03 01:46:34;;;;;;;3.58;0.80;;;19.10;91.80;;;;;;5038272;28;20029;-71
2022/08/03 01:49:03;;;;;;;5.70;1.15;;;19.60;91.60;;;;;;5038632;28;20540;-72
2022/08/03 01:51:32;;;;;;;3.60;0.90;;;19.80;91.10;;;;;;5038995;28;20462;-72
2022/08/03 01:54:01;;;;;;;1.65;0.65;;;20.00;91.10;;;;;;5038290;28;20297;-72
2022/08/03 01:56:30;;;;;;;4.30;0.82;;;20.10;90.60;;;;;;5038851;28;20095;-74
2022/08/03 01:59:02;;;;;;;2.30;0.70;;;20.30;90.70;;;;;;5037475;28;20274;-70
2022/08/03 02:01:31;;;;;;;3.08;1.02;;;20.60;90.30;;;;;;5038697;28;20035;-71
2022/08/03 02:04:00;;;;;;;5.00;0.90;;;20.70;90.10;;;;;;5037220;28;20032;-71
2022/08/03 02:06:31;;;;;;;2.08;0.60;;;21.00;89.80;;;;;;5038766;28;20549;-71
2022/08/03 02:09:00;;;;;;;1.67;0.63;;;21.20;88.90;;;;;;5037337;28;20021;-70
2022/08/03 02:11:30;;;;;;;2.13;0.68;;;21.30;88.60;;;;;;5038104;28;20173;-71
2022/08/03 02:14:01;;;;;;;4.57;1.33;;;21.40;87.80;;;;;;5035121;28;20184;-72
2022/08/03 02:16:30;;;;;;;1.38;0.80;;;21.60;87.90;;;;;;5038177;28;20071;-70
2022/08/03 02:18:59;;;;;;;2.60;1.25;;;21.70;86.90;;;;;;5036429;28;20361;-71
2022/08/03 02:21:29;;;;;;;2.22;0.60;;;21.70;86.70;;;;;;5038752;28;20361;-72
2022/08/03 02:23:57;;;;;;;2.17;0.63;;;21.70;87.40;;;;;;5036921;28;20481;-73
2022/08/03 02:26:27;;;;;;;1.42;0.50;;;21.80;87.40;;;;;;5039272;28;20067;-72
2022/08/03 02:28:58;;;;;;;2.30;0.70;;;21.90;87.20;;;;;;5036521;28;20104;-73
2022/08/03 02:31:31;;;;;;;4.07;0.82;;;22.10;87.20;;;;;;5038771;28;20024;-76
2022/08/03 02:34:05;;;;;;;2.05;0.85;;;22.10;86.70;;;;;;5036675;28;20021;-76
2022/08/03 02:36:37;;;;;;;1.42;0.60;;;22.20;86.30;;;;;;5038315;28;20021;-73
2022/08/03 02:39:05;;;;;;;2.65;0.75;;;22.40;86.20;;;;;;5037942;28;20223;-71
2022/08/03 02:41:41;;;;;;;2.08;0.70;;;22.60;85.80;;;;;;5037297;28;20025;-72
2022/08/03 02:44:13;;;;;;;2.85;0.80;;;22.80;84.80;;;;;;5036162;28;20036;-81
2022/08/03 02:46:45;;;;;;;1.67;0.50;;;22.90;84.90;;;;;;5037449;28;20544;-76
2022/08/03 02:49:13;;;;;;;;;;;23.20;84.90;;;;;;5038866;28;20265;-78
2022/08/03 02:51:43;;;;;;;1.63;0.57;;;23.30;83.70;;;;;;5037969;28;19912;-74
2022/08/03 02:54:11;;;;;;;2.25;0.70;;;23.70;83.50;;;;;;5037667;28;20021;-73
2022/08/03 02:56:39;;;;;;;5.18;1.02;;;23.90;82.50;;;;;;5038331;28;20037;-71
2022/08/03 02:59:07;;;;;;;3.22;0.60;;;24.00;82.50;;;;;;5036374;28;20645;-70
2022/08/03 03:01:35;;;;;;;2.80;0.70;;;24.30;81.80;;;;;;5040613;28;20029;-71
2022/08/03 03:04:04;;;;;;;1.05;0.60;;;24.40;80.80;;;;;;5039391;28;20571;-71
2022/08/03 03:06:31;;;;;;;2.65;0.70;;;24.30;81.40;;;;;;5041678;28;20021;-72
2022/08/03 03:08:59;;;;;;;1.70;0.60;;;24.40;80.90;;;;;;5039715;28;20029;-71
2022/08/03 03:11:28;;;;;;;3.33;1.00;;;24.80;81.50;;;;;;5041527;28;20021;-71
2022/08/03 03:13:57;;;;;;;1.58;0.55;;;25.20;80.00;;;;;;5038862;28;20086;-71
2022/08/03 03:16:27;;;;;;;4.53;0.70;;;25.30;79.10;;;;;;5039709;28;20029;-73
2022/08/03 03:18:54;;;;;;;1.77;0.60;;;25.10;79.30;;;;;;5039512;28;20036;-70
2022/08/03 03:21:22;;;;;;;1.48;0.75;;;25.10;79.40;;;;;;5041249;28;20021;-72
2022/08/03 03:23:51;;;;;;;1.88;0.60;;;25.20;79.20;;;;;;5040191;28;20027;-72
2022/08/03 03:26:19;;;;;;;3.45;0.77;;;25.70;78.80;;;;;;5041835;28;20100;-72
2022/08/03 03:28:47;;;;;;;3.22;0.77;;;26.10;77.50;;;;;;5041472;28;20032;-71
2022/08/03 03:31:14;;;;;;;1.63;0.60;;;26.60;76.70;;;;;;5039958;28;20047;-72
2022/08/03 03:33:42;;;;;;;3.20;0.68;;;26.40;76.40;;;;;;5041069;28;20029;-72
2022/08/03 03:36:10;;;;;;;2.13;0.55;;;26.50;76.10;;;;;;5039144;28;20781;-74
2022/08/03 03:38:38;;;;;;;3.05;0.77;;;26.70;75.70;;;;;;5040699;28;20397;-77
2022/08/03 03:41:05;;;;;;;2.63;0.80;;;26.90;75.30;;;;;;5039476;28;20021;-71
2022/08/03 03:43:33;;;;;;;3.58;0.73;;;27.20;75.20;;;;;;5041210;28;20025;-71
2022/08/03 03:46:01;;;;;;;1.60;0.60;;;27.50;74.80;;;;;;5038758;28;20144;-73
2022/08/03 03:48:28;;;;;;;2.20;0.65;;;27.60;73.90;;;;;;5040979;28;20477;-74
2022/08/03 03:50:56;;;;;;;2.63;0.50;;;27.50;74.60;;;;;;5041076;28;20025;-72
2022/08/03 03:53:24;;;;;;;1.98;0.70;;;27.60;73.60;;;;;;5038560;28;20537;-72
2022/08/03 03:55:53;;;;;;;3.05;0.70;;;27.60;73.20;;;;;;5040252;28;20029;-74
2022/08/03 03:58:21;;;;;;;1.92;0.50;;;27.70;73.90;;;;;;5038046;28;20044;-75
2022/08/03 04:00:48;;;;;;;2.13;0.60;;;28.10;73.10;;;;;;5040682;28;20028;-71
2022/08/03 04:03:16;;;;;;;1.90;0.60;;;28.30;71.90;;;;;;5039078;28;20497;-74
2022/08/03 04:11:25;;;;;;;2.22;0.60;;;28.80;70.40;;;;;;5039869;28;20109;-74
2022/08/03 04:13:58;;;;;;;1.25;0.60;;;28.60;70.70;;;;;;5040778;28;20029;-73
2022/08/03 04:16:33;;;;;;;2.20;0.60;;;28.90;70.10;;;;;;5038777;28;20056;-75
2022/08/03 04:19:12;;;;;;;1.50;0.47;;;29.20;69.70;;;;;;5040909;28;20032;-75
2022/08/03 04:21:43;;;;;;;2.40;0.50;;;29.50;68.80;;;;;;5040400;28;20017;-72
2022/08/03 04:24:12;;;;;;;1.58;0.50;;;29.30;68.50;;;;;;5041156;28;20032;-74
2022/08/03 04:26:42;;;;;;;1.52;0.65;;;29.00;69.60;;;;;;5038950;28;20039;-74
2022/08/03 04:29:11;;;;;;;4.20;0.82;;;28.90;69.80;;;;;;5040935;28;20436;-73
2022/08/03 04:31:41;;;;;;;2.47;0.73;;;29.20;69.70;;;;;;5038525;28;20024;-74
2022/08/03 04:34:08;;;;;;;1.17;0.45;;;29.30;69.10;;;;;;5040274;28;20104;-72
2022/08/03 04:36:49;;;;;;;2.30;0.50;;;29.10;68.30;;;;;;5038316;28;20025;-74
2022/08/03 04:39:29;;;;;;;1.08;0.50;;;28.40;68.50;;;;;;5035197;28;20071;-77
2022/08/03 04:42:02;;;;;;;2.03;0.60;;;27.80;69.60;;;;;;5027489;28;20325;-73
2022/08/03 04:44:30;;;;;;;0.90;0.47;;;27.20;70.50;;;;;;5039591;28;20029;-73
2022/08/03 04:46:59;;;;;;;1.23;0.50;;;26.50;71.70;;;;;;5038882;28;20132;-75
2022/08/03 04:49:27;;;;;;;1.58;0.50;;;26.40;72.10;;;;;;5039714;28;20470;-79
2022/08/03 04:51:54;;;;;;;1.75;0.60;;;26.50;71.20;;;;;;5036918;28;20032;-73
2022/08/03 04:54:22;;;;;;;2.42;0.90;;;26.60;71.50;;;;;;5040235;28;20116;-75
2022/08/03 04:56:49;;;;;;;1.42;0.60;;;26.40;71.80;;;;;;5036389;28;20048;-71
2022/08/03 04:59:16;;;;;;;4.25;0.60;;;26.30;72.60;;;;;;5039923;28;20049;-72
2022/08/03 05:01:44;;;;;;;2.78;0.77;;;26.10;72.50;;;;;;5037173;28;20812;-75
2022/08/03 05:04:11;;;;;;;3.13;1.13;;;25.90;72.60;;;;;;5049072;28;20219;-75
2022/08/03 05:06:38;;;;;;;1.02;0.40;;;25.70;73.40;;;;;;5057586;28;20047;-73
2022/08/03 05:09:06;;;;;;;0.88;0.70;;;25.50;74.10;;;;;;5040713;28;20481;-73
2022/08/03 05:11:33;;;;;;;1.73;0.55;;;25.50;74.40;;;;;;5039099;28;20037;-72
2022/08/03 05:14:00;;;;;;;2.78;0.70;;;25.40;75.00;;;;;;5037070;28;20021;-73
2022/08/03 05:16:28;;;;;;;1.90;0.77;;;25.40;75.00;;;;;;5038491;28;20036;-77
2022/08/03 05:18:55;;;;;;;1.65;0.50;;;25.40;75.00;;;;;;5037047;28;20118;-74
2022/08/03 05:21:22;;;;;;;3.92;0.68;;;25.40;75.30;;;;;;5039770;28;20043;-81
2022/08/03 05:23:50;;;;;;;1.15;0.50;;;25.40;75.60;;;;;;5038006;28;20462;-75
2022/08/03 05:26:17;;;;;;;4.40;0.70;;;25.20;75.40;;;;;;5033811;28;20156;-77
2022/08/03 05:28:44;;;;;;;6.32;0.85;;;25.10;75.60;;;;;;5045306;28;20033;-77
2022/08/03 05:31:12;;;;;;;2.05;0.70;;;25.00;75.70;;;;;;5037821;28;20746;-73
2022/08/03 05:33:39;;;;;;;2.13;0.60;;;24.80;76.20;;;;;;5037143;28;20017;-81
2022/08/03 05:36:07;;;;;;;1.00;0.50;;;24.60;76.90;;;;;;5036800;28;20021;-74
2022/08/03 05:38:35;;;;;;;2.83;0.57;;;24.40;77.20;;;;;;5033268;28;20437;-77
2022/08/03 05:41:03;;;;;;;3.65;0.70;;;24.30;77.90;;;;;;5037590;28;20029;-78
2022/08/03 05:43:36;;;;;;;3.60;0.60;;;24.20;78.00;;;;;;5036741;28;20020;-79
2022/08/03 05:46:03;;;;;;;2.67;0.60;;;24.30;78.00;;;;;;5039150;28;20025;-79
2022/08/03 05:48:31;;;;;;;2.63;0.75;;;24.20;77.70;;;;;;5036156;28;20027;-80
2022/08/03 05:50:58;;;;;;;0.82;0.50;;;24.30;77.90;;;;;;5038237;28;20067;-76
2022/08/03 05:53:28;;;;;;;2.33;0.70;;;24.40;77.30;;;;;;5035765;28;20425;-76
2022/08/03 05:55:55;;;;;;;2.22;0.60;;;24.50;77.40;;;;;;5039711;28;20351;-74
2022/08/03 05:58:23;;;;;;;2.53;0.50;;;24.70;77.20;;;;;;5036458;28;20055;-80
2022/08/03 06:00:50;;;;;;;2.97;0.82;;;24.70;77.10;;;;;;5038353;28;20021;-82
2022/08/03 06:03:18;;;;;;;3.63;0.50;;;24.70;77.30;;;;;;5036431;28;20021;-75
2022/08/03 06:05:46;;;;;;;2.47;0.60;;;24.90;77.20;;;;;;5037928;28;20051;-80
2022/08/03 06:08:14;;;;;;;1.48;0.68;;;25.10;76.60;;;;;;5037691;28;20017;-83
2022/08/03 06:10:41;;;;;;;2.88;0.60;;;25.40;76.30;;;;;;5036552;28;20017;-78
2022/08/03 06:13:08;;;;;;;2.63;1.08;;;25.70;76.00;;;;;;5036826;28;20371;-78
2022/08/03 06:15:35;;;;;;;4.28;0.85;;;26.20;75.30;;;;;;5035032;28;20032;-74
2022/08/03 06:18:03;;;;;;;1.90;0.50;;;26.70;74.60;;;;;;5056547;28;20036;-77
2022/08/03 06:20:30;;;;;;;2.17;0.60;;;26.90;73.20;;;;;;5051748;28;20017;-79
2022/08/03 06:23:00;;;;;;;1.40;0.35;;;26.90;73.80;;;;;;5038402;28;20027;-80
2022/08/03 06:25:28;;;;;;;0.95;0.30;;;27.00;73.10;;;;;;5036186;28;20024;-79
2022/08/03 06:27:55;;;;;;;1.58;0.43;;;27.10;72.70;;;;;;5040035;28;20025;-76
2022/08/03 06:30:23;;;;;;;2.30;0.93;;;26.90;73.10;;;;;;5036701;28;20029;-74
2022/08/03 06:32:50;;;;;;;2.50;0.60;;;26.70;73.60;;;;;;5038835;28;20108;-72
2022/08/03 06:35:18;;;;;;;1.45;0.60;;;26.20;74.20;;;;;;5039461;28;20013;-75
2022/08/03 06:37:51;;;;;;;3.20;0.65;;;25.60;75.20;;;;;;5039449;28;20040;-77
2022/08/03 06:40:27;;;;;;;3.08;0.90;;;25.20;76.00;;;;;;5041435;28;20025;-83
2022/08/03 06:42:55;;;;;;;2.65;0.98;;;24.70;77.10;;;;;;5041972;28;20524;-78
2022/08/03 06:45:23;;;;;;;2.58;0.55;;;24.30;77.80;;;;;;5040609;28;20027;-72
2022/08/03 06:48:01;;;;;;;0.98;0.60;;;23.90;79.40;;;;;;5043169;28;20055;-73
2022/08/03 06:50:29;;;;;;;2.47;0.70;;;23.60;79.90;;;;;;5043475;28;20059;-72
2022/08/03 06:52:56;;;;;;;3.17;0.70;;;23.40;80.30;;;;;;5044252;28;20100;-73
2022/08/03 06:55:23;;;;;;;3.63;0.63;;;23.20;81.00;;;;;;5041996;28;20378;-74
2022/08/03 06:57:51;;;;;;;2.92;0.77;;;23.00;81.70;;;;;;5043493;28;20056;-81
2022/08/03 07:00:18;;;;;;;1.50;0.60;;;22.80;82.20;;;;;;5043088;28;20023;-85
2022/08/03 07:02:46;;;;;;;1.98;0.93;;;22.70;82.60;;;;;;5040821;28;20193;-82
2022/08/03 07:05:14;;;;;;;0.80;0.50;;;22.50;83.20;;;;;;5049819;28;20024;-70
2022/08/03 07:07:42;;;;;;;2.95;0.60;;;22.40;83.60;;;;;;5049234;28;20313;-74
2022/08/03 07:10:13;;;;;;;2.17;0.60;;;22.30;84.20;;;;;;5052753;28;20029;-75
2022/08/03 07:12:40;;;;;;;1.45;0.57;;;22.10;84.50;;;;;;5038669;28;20032;-79
2022/08/03 07:15:09;;;;;;;2.95;0.80;;;22.00;84.90;;;;;;5041924;28;20032;-80
2022/08/03 07:17:36;;;;;;;4.07;0.70;;;21.90;85.30;;;;;;5048831;28;20265;-77
2022/08/03 07:20:07;;;;;;;5.30;0.77;;;21.80;85.50;;;;;;5061690;28;20035;-82
2022/08/03 07:22:35;;;;;;;3.40;0.70;;;21.70;85.90;;;;;;5046926;28;20025;-79
2022/08/03 07:25:03;;;;;;;5.10;2.10;;;21.70;86.30;;;;;;5040981;28;20408;-78
2022/08/03 07:27:31;;;;;;;8.48;4.05;;;21.60;86.80;;;;;;5041372;28;20511;-73
2022/08/03 07:29:59;;;;;;;4.53;2.65;;;21.40;88.00;;;;;;5043678;28;20040;-82
2022/08/03 07:32:30;;;;;;;5.22;1.77;;;21.30;88.80;;;;;;5041860;28;20021;-76
2022/08/03 07:34:57;;;;;;;3.83;1.20;;;21.20;90.50;;;;;;5041726;28;20056;-80
2022/08/03 07:37:25;;;;;;;5.60;1.63;;;21.00;91.10;;;;;;5042138;28;20017;-75
2022/08/03 07:39:52;;;;;;;6.03;1.80;;;20.90;91.60;;;;;;5041703;28;20481;-77
2022/08/03 07:42:19;;;;;;;6.35;2.17;;;20.80;92.00;;;;;;5040801;28;20037;-76
2022/08/03 07:44:47;;;;;;;5.88;2.15;;;20.60;92.30;;;;;;5038839;28;20017;-75
2022/08/03 07:47:19;;;;;;;3.97;2.53;;;20.50;92.60;;;;;;5040267;28;20021;-74
2022/08/03 07:49:46;;;;;;;4.60;2.30;;;20.40;93.10;;;;;;5037335;28;20062;-76
2022/08/03 07:54:58;;;;;;;5.55;2.85;;;20.20;94.00;;;;;;5036420;28;20055;-87
2022/08/03 07:57:26;;;;;;;4.28;1.65;;;20.10;94.20;;;;;;5038635;28;20055;-74
2022/08/03 07:59:53;;;;;;;3.72;1.50;;;20.00;94.50;;;;;;5037901;28;20102;-77
2022/08/03 08:02:20;;;;;;;4.53;1.38;;;19.90;94.70;;;;;;5039760;28;20029;-74
2022/08/03 08:04:47;;;;;;;3.50;1.58;;;19.90;95.00;;;;;;5038844;28;20385;-74
2022/08/03 08:07:15;;;;;;;4.18;1.63;;;19.80;95.30;;;;;;5029778;28;20017;-79
2022/08/03 08:09:42;;;;;;;6.80;2.35;;;19.80;95.50;;;;;;5039309;28;20466;-82
2022/08/03 08:12:11;;;;;;;3.85;1.55;;;19.70;95.60;;;;;;5038587;28;20995;-80
2022/08/03 08:14:40;;;;;;;5.47;1.67;;;19.60;95.70;;;;;;5039214;28;20021;-77
2022/08/03 08:17:07;;;;;;;3.05;1.40;;;19.50;95.60;;;;;;5038094;28;20535;-77
2022/08/03 08:19:35;;;;;;;6.40;2.05;;;19.50;95.70;;;;;;5039626;28;20028;-81
2022/08/03 08:22:02;;;;;;;4.75;1.80;;;19.40;95.70;;;;;;5037510;28;20024;-80
2022/08/03 08:24:32;;;;;;;7.45;2.58;;;19.40;95.60;;;;;;5039311;28;20021;-81
2022/08/03 08:27:01;;;;;;;3.05;1.65;;;19.40;95.50;;;;;;5037016;28;20025;-79
2022/08/03 08:29:29;;;;;;;3.33;1.90;;;19.40;95.20;;;;;;5039753;28;20028;-78
2022/08/03 08:31:56;;;;;;;3.38;1.35;;;19.30;95.00;;;;;;5037265;28;20382;-74
2022/08/03 08:34:23;;;;;;;3.05;1.80;;;19.30;94.70;;;;;;5039562;28;20036;-80
2022/08/03 08:36:51;;;;;;;5.53;1.70;;;19.40;94.70;;;;;;5039735;28;20029;-75
2022/08/03 08:39:18;;;;;;;3.10;1.10;;;19.40;94.60;;;;;;5038375;28;20887;-81
2022/08/03 08:41:51;;;;;;;3.13;1.48;;;19.50;94.30;;;;;;5038746;28;20029;-80
2022/08/03 08:44:18;;;;;;;3.00;1.38;;;19.50;94.10;;;;;;5037127;28;20104;-79
2022/08/03 08:46:46;;;;;;;4.90;1.52;;;19.60;93.90;;;;;;5037416;28;20025;-77
2022/08/03 08:49:18;;;;;;;2.40;1.20;;;19.60;93.80;;;;;;5037071;28;20025;-79
2022/08/03 08:51:47;;;;;;;4.43;1.63;;;19.60;93.90;;;;;;5039204;28;20139;-79
2022/08/03 08:54:17;;;;;;;3.40;1.63;;;19.70;93.80;;;;;;5037087;28;20043;-73
2022/08/03 08:56:45;;;;;;;2.17;1.17;;;19.70;93.70;;;;;;5038785;28;20080;-76
2022/08/03 08:59:12;;;;;;;3.85;1.85;;;19.70;93.70;;;;;;5036762;28;20037;-77
2022/08/03 09:01:40;;;;;;;3.38;1.50;;;19.60;93.70;;;;;;5038604;28;20021;-74
2022/08/03 09:04:08;;;;;;;3.75;1.40;;;19.60;93.80;;;;;;5037229;28;20029;-79
2022/08/03 09:06:35;;;;;;;3.95;2.00;;;19.60;93.90;;;;;;5038126;28;20017;-78
2022/08/03 09:09:05;;;;;;;5.90;2.58;;;19.60;93.90;;;;;;5037738;28;20068;-78
2022/08/03 09:11:33;;;;;;;5.57;2.72;;;19.60;93.80;;;;;;5038135;28;20025;-76
2022/08/03 09:14:00;;;;;;;5.75;2.28;;;19.60;93.90;;;;;;5037291;28;20469;-73
2022/08/03 09:16:27;;;;;;;5.07;1.95;;;19.60;93.90;;;;;;5037382;28;20024;-75
2022/08/03 09:18:55;;;;;;;2.40;1.70;;;19.60;93.90;;;;;;5038180;28;20758;-79
2022/08/03 09:21:25;;;;;;;4.07;2.05;;;19.50;94.00;;;;;;5036541;28;20052;-77
2022/08/03 09:23:55;;;;;;;3.72;1.70;;;19.50;94.00;;;;;;5038263;28;20493;-77
2022/08/03 09:26:25;;;;;;;2.58;1.23;;;19.50;94.00;;;;;;5036648;28;20086;-79
2022/08/03 09:28:58;;;;;;;4.05;2.10;;;19.50;94.00;;;;;;5039568;28;20028;-74
2022/08/03 09:31:40;;;;;;;8.55;1.50;;;19.40;94.10;;;;;;5040449;28;20086;-81
2022/08/03 09:34:10;;;;;;;3.58;1.92;;;19.50;94.10;;;;;;5038472;28;20071;-74
2022/08/03 09:36:48;;;;;;;4.28;2.08;;;19.50;94.20;;;;;;5031816;28;20096;-78
2022/08/03 09:39:24;;;;;;;4.15;1.92;;;19.40;94.20;;;;;;5038162;28;20500;-77
2022/08/03 09:42:09;;;;;;;2.50;1.20;;;19.40;94.20;;;;;;5037346;28;20025;-77
2022/08/03 09:44:42;;;;;;;5.50;1.60;;;19.40;94.30;;;;;;5037374;28;20158;-78
2022/08/03 09:47:11;;;;;;;3.47;1.83;;;19.30;94.20;;;;;;5037250;28;20098;-73
2022/08/03 09:49:43;;;;;;;1.92;1.52;;;19.40;94.30;;;;;;5035988;28;20159;-80
2022/08/03 09:52:17;;;;;;;2.57;1.23;;;19.30;94.20;;;;;;5034534;28;20044;-74
2022/08/03 09:54:52;;;;;;;3.03;1.27;;;19.40;94.30;;;;;;5034767;28;20705;-79
2022/08/03 09:57:26;;;;;;;3.45;1.10;;;19.30;94.50;;;;;;5034676;28;20101;-76
2022/08/03 10:00:04;;;;;;;2.35;1.27;;;19.40;94.20;;;;;;5036011;28;20028;-77
2022/08/03 10:02:32;;;;;;;5.20;1.40;;;19.40;94.20;;;;;;5034276;28;20044;-77
2022/08/03 10:05:00;;;;;;;2.05;1.10;;;19.50;94.10;;;;;;5035726;28;20025;-79
2022/08/03 10:07:28;;;;;;;4.32;1.20;;;19.50;94.00;;;;;;5036586;28;20013;-79
2022/08/03 10:10:01;;;;;;;3.03;1.30;;;19.50;93.90;;;;;;5038051;28;20029;-75
2022/08/03 10:12:29;;;;;;;3.85;1.15;;;19.50;93.90;;;;;;5036697;28;20063;-79
2022/08/03 10:14:56;;;;;;;3.92;1.63;;;19.50;93.90;;;;;;5038541;28;20048;-80
2022/08/03 10:17:24;;;;;;;3.90;1.40;;;19.50;93.90;;;;;;5036909;28;20478;-77
2022/08/03 10:19:51;;;;;;;3.85;1.92;;;19.50;94.00;;;;;;5037959;28;20484;-78
2022/08/03 10:22:28;;;;;;;2.60;1.55;;;19.40;94.00;;;;;;5037543;28;20028;-79
2022/08/03 10:25:29;;;;;;;1.73;1.40;;;19.40;94.00;;;;;;5036891;28;20024;-74
2022/08/03 10:27:57;;;;;;;3.75;1.60;;;19.40;93.90;;;;;;5040524;28;20037;-79
2022/08/03 10:30:28;;;;;;;2.15;1.17;;;19.40;94.10;;;;;;5036862;28;20045;-79
2022/08/03 10:33:02;;;;;;;2.95;1.63;;;19.40;94.00;;;;;;5037636;28;20043;-78
2022/08/03 10:35:30;;;;;;;4.13;1.45;;;19.40;94.00;;;;;;5036399;28;20029;-75
2022/08/03 10:38:03;;;;;;;3.35;1.63;;;19.40;94.10;;;;;;5038000;28;20029;-82
2022/08/03 10:40:32;;;;;;;3.15;1.20;;;19.30;94.10;;;;;;5037545;28;20182;-79
2022/08/03 10:43:09;;;;;;;2.88;1.20;;;19.30;94.20;;;;;;5037809;28;20551;-80
2022/08/03 10:45:42;;;;;;;3.78;1.58;;;19.30;94.20;;;;;;5031824;28;20021;-73
2022/08/03 10:48:09;;;;;;;8.32;1.50;;;19.30;94.30;;;;;;5037649;28;20024;-79
2022/08/03 10:50:38;;;;;;;3.17;1.27;;;19.30;94.40;;;;;;5036967;28;20127;-80
2022/08/03 10:53:07;;;;;;;3.30;1.00;;;19.30;94.50;;;;;;5037373;28;20496;-78
2022/08/03 10:58:48;;;;;;;3.58;1.67;;;19.30;94.30;;;;;;5037102;28;20056;-78
2022/08/03 11:01:17;;;;;;;4.03;1.20;;;19.20;94.40;;;;;;5037836;28;20082;-78
2022/08/03 11:03:56;;;;;;;7.90;1.70;;;19.20;94.50;;;;;;5036693;28;20043;-73
2022/08/03 11:06:26;;;;;;;1.90;1.20;;;19.20;94.50;;;;;;5036474;28;20021;-73
2022/08/03 11:09:12;;;;;;;3.10;1.00;;;19.20;94.50;;;;;;5036431;28;20048;-78
2022/08/03 11:11:42;;;;;;;2.05;1.08;;;19.20;94.50;;;;;;5036219;28;20559;-77
2022/08/03 11:14:11;;;;;;;4.22;1.40;;;19.10;94.50;;;;;;5036921;28;20461;-78
2022/08/03 11:16:40;;;;;;;4.28;1.38;;;19.20;94.60;;;;;;5036444;28;20025;-75
2022/08/03 11:19:09;;;;;;;1.95;1.20;;;19.20;94.60;;;;;;5037507;28;20061;-80
2022/08/03 11:21:49;;;;;;;1.63;1.10;;;19.10;94.60;;;;;;5037911;28;20017;-78
2022/08/03 11:24:45;;;;;;;2.08;1.17;;;19.10;94.70;;;;;;5041357;28;20486;-74
2022/08/03 11:27:18;;;;;;;3.67;1.70;;;19.20;94.50;;;;;;5040539;28;20040;-78
2022/08/03 11:30:08;;;;;;;2.83;1.27;;;19.20;94.60;;;;;;5040291;28;20021;-80
2022/08/03 11:32:45;;;;;;;4.25;1.50;;;19.10;94.70;;;;;;5040529;28;20078;-78
2022/08/03 11:35:15;;;;;;;3.03;1.63;;;19.10;94.80;;;;;;5040118;28;20013;-75
2022/08/03 11:37:54;;;;;;;2.33;1.30;;;19.00;94.90;;;;;;5039132;28;20114;-80
2022/08/03 11:40:44;;;;;;;2.22;1.25;;;19.00;95.00;;;;;;5040390;28;20040;-73
2022/08/03 11:43:33;;;;;;;3.92;1.35;;;19.00;95.10;;;;;;5040507;28;20021;-76
2022/08/03 11:46:20;;;;;;;2.55;1.60;;;18.90;95.20;;;;;;5039580;28;20528;-79
2022/08/03 11:48:51;;;;;;;5.05;1.80;;;18.90;95.40;;;;;;5031968;28;20893;-78
2022/08/03 11:51:24;;;;;;;4.72;1.67;;;18.80;95.40;;;;;;5039821;28;20005;-78
2022/08/03 11:53:59;;;;;;;3.38;1.70;;;18.80;95.60;;;;;;5040432;28;20070;-77
2022/08/03 11:56:28;;;;;;;4.07;1.75;;;18.70;95.70;;;;;;5039673;28;20092;-79
2022/08/03 11:58:58;;;;;;;1.77;1.10;;;18.60;95.80;;;;;;5039793;28;20033;-78
2022/08/03 12:01:25;;;;;;;3.00;1.48;;;18.70;95.90;;;;;;5039740;28;20032;-74
2022/08/03 12:03:53;;;;;;;3.40;1.25;;;18.60;96.00;;;;;;5038994;28;20037;-80
2022/08/03 12:06:20;;;;;;;2.25;1.17;;;18.60;96.10;;;;;;5038491;28;21604;-80
2022/08/03 12:08:48;;;;;;;8.20;3.60;;;18.50;96.10;;;;;;5037563;28;20470;-77
2022/08/03 12:11:16;;;;;;;4.53;1.40;;;18.50;96.20;;;;;;5038952;28;20014;-75
2022/08/03 12:13:46;;;;;;;2.92;0.98;;;18.50;96.30;;;;;;5037696;28;20074;-78
2022/08/03 12:16:21;;;;;;;3.33;1.20;;;18.50;96.30;;;;;;5038580;28;20470;-78
2022/08/03 12:19:03;;;;;;;3.40;1.50;;;18.50;96.40;;;;;;5038539;28;20060;-77
2022/08/03 12:21:31;;;;;;;3.58;1.48;;;18.50;96.40;;;;;;5038394;28;20025;-77
2022/08/03 12:24:04;;;;;;;4.35;1.45;;;18.40;96.50;;;;;;5034778;28;20033;-77
2022/08/03 12:26:46;;;;;;;10.05;1.88;;;18.40;96.70;;;;;;5038586;28;20052;-76
2022/08/03 12:29:20;;;;;;;3.47;1.08;;;18.30;96.80;;;;;;5037552;28;20060;-76
2022/08/03 12:31:49;;;;;;;3.38;1.48;;;18.30;96.90;;;;;;5038394;28;20540;-74
2022/08/03 12:34:16;;;;;;;3.55;1.20;;;18.30;97.10;;;;;;5037757;28;20043;-75
2022/08/03 12:36:56;;;;;;;1.65;1.02;;;18.20;97.20;;;;;;5038228;28;20386;-77
2022/08/03 12:39:26;;;;;;;2.90;1.42;;;18.10;97.20;;;;;;5035253;28;20033;-77
2022/08/03 12:41:54;;;;;;;3.20;1.60;;;18.00;97.40;;;;;;5037139;28;20029;-77
2022/08/03 12:44:33;;;;;;;3.50;1.33;;;18.00;97.50;;;;;;5037241;28;20017;-76
2022/08/03 12:47:02;;;;;;;5.05;1.52;;;18.00;97.60;;;;;;5035110;28;20017;-74
2022/08/03 12:49:53;;;;;;;3.45;1.40;;;18.00;97.70;;;;;;5038909;28;20052;-76
2022/08/03 12:52:22;;;;;;;3.65;1.63;;;18.00;97.90;;;;;;5035600;28;20021;-79
2022/08/03 12:55:00;;;;;;;4.72;1.85;;;17.90;98.00;;;;;;5038006;28;20032;-73
2022/08/03 12:57:41;;;;;;;2.15;1.20;;;17.80;98.10;;;;;;5035760;28;20041;-74
2022/08/03 13:00:16;;;;;;;3.78;1.40;;;17.80;98.20;;;;;;5034984;28;20044;-75
2022/08/03 13:02:44;;;;;;;5.22;1.80;;;17.80;98.30;;;;;;5035755;28;20028;-79
2022/08/03 13:05:13;;;;;;;3.72;1.48;;;17.80;98.40;;;;;;5036510;28;20465;-77
2022/08/03 13:07:43;;;;;;;3.85;1.50;;;17.70;98.40;;;;;;5035667;28;20044;-73
2022/08/03 13:10:28;;;;;;;6.55;1.70;;;17.70;98.50;;;;;;5036719;28;20029;-77
2022/08/03 13:13:01;;;;;;;5.85;1.77;;;17.70;98.60;;;;;;5037589;28;20021;-77
2022/08/03 13:15:29;;;;;;;2.42;1.30;;;17.70;98.70;;;;;;5036631;28;20021;-75
2022/08/03 13:17:57;;;;;;;3.40;1.35;;;17.70;98.80;;;;;;5036669;28;20040;-76